Time;durP1;ratioP1;P1;durP2;ratioP2;P2;SDS_P1;SDS_P2;PMS_P1;PMS_P2;Temp;Humidity;BMP_temperature;BMP_pressure;BME280_temperature;BME280_humidity;BME280_pressure;Samples;Min_cycle;Max_cycle;Signal;HPM_P1;HPM_P2
2021/08/18 00:01:37;;;;;;;10.10;7.75;;;;;;;15.59;56.17;100087.99;127977;1098;22360;-77
2021/08/18 00:04:07;;;;;;;9.60;7.45;;;;;;;15.57;56.13;100084.73;128082;1098;22408;-77
2021/08/18 00:06:36;;;;;;;10.78;7.55;;;;;;;15.59;56.28;100087.99;128022;1098;22371;-77
2021/08/18 00:09:06;;;;;;;10.60;7.83;;;;;;;15.62;56.46;100092.91;128302;1098;22379;-77
2021/08/18 00:11:36;;;;;;;12.45;8.15;;;;;;;15.62;56.11;100091.05;128281;1098;24202;-77
2021/08/18 00:14:05;;;;;;;12.38;7.40;;;;;;;15.62;56.22;100092.91;128237;1098;23144;-77
2021/08/18 00:16:35;;;;;;;11.28;8.13;;;;;;;15.63;56.30;100099.89;128224;1098;22352;-78
2021/08/18 00:19:05;;;;;;;7.98;7.18;;;;;;;15.64;56.35;100099.67;128307;1095;23121;-79
2021/08/18 00:21:35;;;;;;;12.80;8.58;;;;;;;15.63;56.10;100094.56;128725;1095;24495;-78
2021/08/18 00:24:05;;;;;;;9.53;7.63;;;;;;;15.63;56.60;100092.72;128327;1095;24170;-78
2021/08/18 00:26:34;;;;;;;10.53;8.15;;;;;;;15.62;56.34;100096.38;128336;1095;22358;-77
2021/08/18 00:29:04;;;;;;;9.60;7.25;;;;;;;15.62;56.39;100099.05;128335;1095;22358;-77
2021/08/18 00:31:34;;;;;;;10.20;8.30;;;;;;;15.62;56.44;100096.38;128634;1094;22864;-78
2021/08/18 00:34:04;;;;;;;10.15;7.95;;;;;;;15.61;56.25;100096.60;128590;1095;23097;-78
2021/08/18 00:36:34;;;;;;;10.93;8.83;;;;;;;15.60;56.39;100094.97;128423;1094;22353;-80
2021/08/18 00:39:03;;;;;;;10.03;8.03;;;;;;;15.60;56.47;100094.97;128685;1095;22337;-77
2021/08/18 00:41:33;;;;;;;8.80;7.95;;;;;;;15.59;56.64;100087.99;128661;1095;22331;-79
2021/08/18 00:44:05;;;;;;;10.45;8.45;;;;;;;15.59;56.63;100088.80;128666;1095;22366;-78
2021/08/18 00:46:58;;;;;;;7.68;6.88;;;;;;;15.59;56.55;100093.31;128709;1095;22360;-78
2021/08/18 00:49:28;;;;;;;9.93;8.25;;;;;;;15.60;56.82;100100.30;128649;1095;22342;-77
2021/08/18 00:51:59;;;;;;;11.75;7.93;;;;;;;15.63;56.84;100094.56;128372;1095;22334;-77
2021/08/18 00:54:49;;;;;;;12.58;8.55;;;;;;;15.63;56.77;100092.72;128367;1093;24227;-77
2021/08/18 00:57:19;;;;;;;13.95;9.58;;;;;;;15.67;56.80;100109.13;128354;1095;22346;-77
2021/08/18 00:59:49;;;;;;;10.50;8.70;;;;;;;15.70;56.83;100100.73;128618;1095;24181;-77
2021/08/18 01:02:21;;;;;;;10.05;9.00;;;;;;;15.72;56.86;100102.13;128646;1093;22609;-78
2021/08/18 01:04:50;;;;;;;;;;;;;;;15.68;56.86;100100.92;128674;1094;22355;-78
2021/08/18 01:07:20;;;;;;;9.60;8.30;;;;;;;15.64;56.88;100102.33;128635;1095;21263;-78
2021/08/18 01:09:49;;;;;;;10.40;8.98;;;;;;;15.67;57.14;100098.47;128628;1093;24160;-77
2021/08/18 01:12:19;;;;;;;11.23;9.48;;;;;;;15.69;57.39;100099.06;128377;1095;22315;-78
2021/08/18 01:14:49;;;;;;;11.60;9.15;;;;;;;15.71;57.45;100097.84;128631;1095;22383;-78
2021/08/18 01:17:18;;;;;;;10.23;8.95;;;;;;;15.75;57.35;100100.91;128345;1095;22391;-77
2021/08/18 01:19:49;;;;;;;9.75;8.75;;;;;;;15.75;57.28;100103.57;128360;1095;22380;-77
2021/08/18 01:22:19;;;;;;;11.48;10.20;;;;;;;15.74;57.28;100094.77;128311;1095;22346;-76
2021/08/18 01:24:48;;;;;;;9.75;8.75;;;;;;;15.75;57.41;100093.73;128332;1095;22345;-77
2021/08/18 01:27:18;;;;;;;10.23;8.80;;;;;;;15.76;57.42;100090.06;128611;1095;22331;-78
2021/08/18 01:29:48;;;;;;;12.73;10.58;;;;;;;15.78;57.33;100097.02;128631;1095;23303;-76
2021/08/18 01:32:17;;;;;;;10.33;8.73;;;;;;;15.79;57.43;100093.31;128612;1095;24178;-77
2021/08/18 01:34:47;;;;;;;13.03;9.30;;;;;;;15.77;57.42;100098.86;128633;1095;22291;-77
2021/08/18 01:37:16;;;;;;;13.28;10.78;;;;;;;15.78;57.54;100103.16;128364;1095;22341;-77
2021/08/18 01:39:46;;;;;;;10.87;9.67;;;;;;;15.76;57.87;100099.88;128536;1095;22348;-77
2021/08/18 01:42:16;;;;;;;10.05;8.55;;;;;;;15.74;57.17;100099.28;128644;1095;22348;-78
2021/08/18 01:44:45;;;;;;;10.55;9.53;;;;;;;15.70;58.00;100095.41;128392;1095;22372;-78
2021/08/18 01:47:15;;;;;;;11.68;8.90;;;;;;;15.67;57.82;100093.15;128626;1095;22322;-78
2021/08/18 01:49:44;;;;;;;14.40;8.85;;;;;;;15.64;57.61;100094.34;128629;1095;22333;-77
2021/08/18 01:52:17;;;;;;;15.45;9.23;;;;;;;15.62;57.85;100088.39;128626;1095;22334;-77
2021/08/18 01:54:46;;;;;;;12.35;9.20;;;;;;;15.56;57.96;100089.25;128588;1095;22796;-77
2021/08/18 01:57:17;;;;;;;11.95;9.23;;;;;;;15.54;58.21;100094.77;128398;1095;22344;-77
2021/08/18 01:59:46;;;;;;;11.20;8.78;;;;;;;15.52;58.72;100091.48;128648;1095;24228;-78
2021/08/18 02:02:18;;;;;;;10.00;8.98;;;;;;;15.47;58.16;100091.29;128353;1095;22340;-77
2021/08/18 02:04:47;;;;;;;11.43;9.65;;;;;;;15.44;58.55;100090.89;128653;1095;24223;-78
2021/08/18 02:07:17;;;;;;;13.58;10.00;;;;;;;15.42;58.49;100096.40;128634;1094;24477;-77
2021/08/18 02:09:47;;;;;;;11.30;10.15;;;;;;;15.41;58.75;100091.30;128625;1095;24493;-78
2021/08/18 02:12:16;;;;;;;12.58;9.10;;;;;;;15.40;59.20;100090.48;128677;1094;22348;-77
2021/08/18 02:14:46;;;;;;;10.65;8.38;;;;;;;15.40;58.81;100087.82;128617;1095;22333;-77
2021/08/18 02:17:16;;;;;;;9.18;8.05;;;;;;;15.40;58.92;100087.82;128609;1095;22345;-77
2021/08/18 02:19:46;;;;;;;9.65;8.65;;;;;;;15.39;58.79;100094.14;128644;1095;22379;-78
2021/08/18 02:22:15;;;;;;;12.45;8.75;;;;;;;15.40;58.78;100098.47;128660;1095;22379;-77
2021/08/18 02:24:45;;;;;;;9.90;8.03;;;;;;;15.39;59.03;100088.82;128659;1095;22353;-78
2021/08/18 02:27:14;;;;;;;9.18;8.30;;;;;;;15.39;59.26;100094.14;128623;1094;22349;-79
2021/08/18 02:29:44;;;;;;;10.33;8.35;;;;;;;15.39;59.28;100091.48;128536;1095;24201;-78
2021/08/18 02:32:13;;;;;;;10.25;9.25;;;;;;;15.40;59.20;100089.67;128636;1095;22340;-78
2021/08/18 02:34:43;;;;;;;13.23;9.68;;;;;;;15.41;59.19;100084.13;128632;1094;22340;-78
2021/08/18 02:37:13;;;;;;;10.93;8.43;;;;;;;15.43;59.15;100078.61;128647;1095;22346;-78
2021/08/18 02:39:42;;;;;;;11.70;9.65;;;;;;;15.46;59.14;100080.83;128674;1095;22391;-78
2021/08/18 02:42:12;;;;;;;11.98;9.58;;;;;;;15.46;59.19;100083.49;128665;1095;23107;-77
2021/08/18 02:44:42;;;;;;;12.10;8.55;;;;;;;15.44;58.95;100085.56;128284;1095;22422;-77
2021/08/18 02:47:12;;;;;;;13.60;9.18;;;;;;;15.46;59.20;100087.00;128294;1095;24491;-78
2021/08/18 02:49:42;;;;;;;11.90;8.90;;;;;;;15.46;59.25;100080.83;128321;1095;22351;-77
2021/08/18 02:52:11;;;;;;;12.28;8.88;;;;;;;15.48;59.12;100089.44;128223;1095;22357;-77
2021/08/18 02:54:41;;;;;;;11.78;8.48;;;;;;;15.49;59.13;100081.27;128305;1095;22706;-78
2021/08/18 02:57:10;;;;;;;11.58;9.75;;;;;;;15.50;59.41;100077.57;128075;1095;22378;-78
2021/08/18 02:59:40;;;;;;;13.15;9.90;;;;;;;15.53;58.96;100084.34;128242;1095;22377;-77
2021/08/18 03:02:09;;;;;;;10.90;9.65;;;;;;;15.52;59.03;100083.48;128297;1095;23275;-77
2021/08/18 03:04:39;;;;;;;13.75;9.73;;;;;;;15.51;58.99;100081.05;128596;1094;22360;-77
2021/08/18 03:07:09;;;;;;;12.73;9.28;;;;;;;15.53;58.98;100084.34;128628;1095;22350;-77
2021/08/18 03:09:38;;;;;;;10.28;9.00;;;;;;;15.54;58.88;100084.11;128334;1095;22341;-76
2021/08/18 03:12:09;;;;;;;11.58;8.93;;;;;;;15.54;58.92;100092.10;128598;1095;22346;-77
2021/08/18 03:14:38;;;;;;;11.58;7.98;;;;;;;15.53;58.95;100079.83;128354;1095;22340;-77
2021/08/18 03:17:08;;;;;;;10.60;9.43;;;;;;;15.53;59.02;100085.14;128674;1093;22350;-76
2021/08/18 03:19:38;;;;;;;9.78;8.83;;;;;;;15.52;58.90;100082.67;128621;1094;22346;-78
2021/08/18 03:22:07;;;;;;;10.05;8.80;;;;;;;15.50;59.00;100084.74;128677;1095;22343;-78
2021/08/18 03:24:37;;;;;;;10.38;9.38;;;;;;;15.50;59.05;100076.76;128623;1095;22797;-77
2021/08/18 03:27:08;;;;;;;12.40;9.58;;;;;;;15.51;58.79;100086.38;128657;1095;22404;-77
2021/08/18 03:29:37;;;;;;;11.73;9.28;;;;;;;15.49;58.95;100083.93;128333;1095;22344;-77
2021/08/18 03:32:08;;;;;;;10.68;8.93;;;;;;;15.48;58.86;100092.92;128675;1095;22661;-77
2021/08/18 03:34:37;;;;;;;12.48;9.03;;;;;;;15.46;58.87;100087.00;128406;1095;24505;-77
2021/08/18 03:37:07;;;;;;;11.33;10.10;;;;;;;15.46;58.95;100094.14;128420;1095;22790;-78
2021/08/18 03:39:36;;;;;;;12.15;9.20;;;;;;;15.46;58.86;100097.65;128657;1095;22353;-78
2021/08/18 03:42:06;;;;;;;14.00;9.53;;;;;;;15.46;58.99;100096.80;128359;1095;24157;-77
2021/08/18 03:44:36;;;;;;;10.23;8.90;;;;;;;15.42;59.02;100088.41;128553;1095;22367;-77
2021/08/18 03:47:05;;;;;;;11.33;8.95;;;;;;;15.42;59.06;100098.25;128678;1095;22353;-76
2021/08/18 03:49:35;;;;;;;12.23;9.33;;;;;;;15.41;58.90;100097.44;128361;1095;22339;-76
2021/08/18 03:52:06;;;;;;;11.38;10.08;;;;;;;15.38;58.91;100092.52;128647;1095;22377;-76
2021/08/18 03:54:35;;;;;;;12.25;8.58;;;;;;;15.38;59.16;100095.18;128357;1095;22334;-77
2021/08/18 03:57:05;;;;;;;10.55;9.45;;;;;;;15.38;59.14;100091.70;128596;1095;24145;-76
2021/08/18 03:59:34;;;;;;;12.10;10.63;;;;;;;15.35;59.16;100090.27;128634;1095;22336;-77
2021/08/18 04:02:04;;;;;;;10.78;7.75;;;;;;;15.35;59.22;100100.09;128603;1095;22819;-77
2021/08/18 04:04:34;;;;;;;10.08;8.40;;;;;;;15.37;59.75;100100.72;128614;1095;22337;-76
2021/08/18 04:07:04;;;;;;;11.00;9.10;;;;;;;15.36;59.16;100099.91;128632;1095;22354;-76
2021/08/18 04:09:33;;;;;;;11.95;10.00;;;;;;;15.36;59.24;100107.89;128641;1095;22334;-76
2021/08/18 04:12:03;;;;;;;12.50;9.40;;;;;;;15.35;59.29;100098.25;128342;1095;22353;-77
2021/08/18 04:14:32;;;;;;;10.38;9.00;;;;;;;15.34;59.25;100106.45;128360;1095;25021;-77
2021/08/18 04:17:02;;;;;;;10.23;9.18;;;;;;;15.31;59.46;100113.00;128605;1095;22354;-77
2021/08/18 04:19:31;;;;;;;11.30;10.10;;;;;;;15.31;59.56;100113.00;128686;1093;22349;-77
2021/08/18 04:22:01;;;;;;;13.53;9.80;;;;;;;15.35;59.60;100108.08;128299;1095;22353;-77
2021/08/18 04:24:30;;;;;;;12.10;9.53;;;;;;;15.35;59.50;100111.55;128680;1093;22350;-77
2021/08/18 04:27:00;;;;;;;11.88;9.33;;;;;;;15.37;59.89;100119.35;128334;1095;22333;-77
2021/08/18 04:29:29;;;;;;;9.48;8.43;;;;;;;15.39;59.54;100109.30;128639;1095;22343;-77
2021/08/18 04:31:59;;;;;;;12.78;9.28;;;;;;;15.39;59.76;100109.30;128616;1095;22337;-76
2021/08/18 04:34:28;;;;;;;12.80;9.73;;;;;;;15.41;59.54;100120.58;128299;1095;24798;-76
2021/08/18 04:36:58;;;;;;;12.33;9.48;;;;;;;15.43;59.59;100121.20;128590;1095;24489;-77
2021/08/18 04:39:27;;;;;;;11.48;8.35;;;;;;;15.47;59.69;100125.08;128345;1095;22365;-77
2021/08/18 04:41:57;;;;;;;14.60;10.45;;;;;;;15.52;59.46;100127.94;128295;1095;22815;-77
2021/08/18 04:44:26;;;;;;;13.35;8.43;;;;;;;15.56;59.34;100136.33;128602;1095;22352;-77
2021/08/18 04:46:56;;;;;;;8.85;7.95;;;;;;;15.57;59.22;100140.65;128321;1095;22364;-77
2021/08/18 04:49:25;;;;;;;12.67;9.63;;;;;;;15.58;59.44;100139.61;128637;1093;22640;-78
2021/08/18 04:51:54;;;;;;;13.33;8.48;;;;;;;15.62;59.35;100143.50;128641;1095;22313;-76
2021/08/18 04:54:24;;;;;;;11.03;9.08;;;;;;;15.64;59.23;100138.80;128610;1095;22351;-77
2021/08/18 04:56:53;;;;;;;11.40;9.08;;;;;;;15.68;59.12;100140.05;128348;1095;22350;-77
2021/08/18 04:59:23;;;;;;;10.08;8.83;;;;;;;15.75;59.35;100148.84;128691;1095;22261;-77
2021/08/18 05:01:52;;;;;;;8.73;7.75;;;;;;;15.82;59.00;100143.52;128670;1095;23368;-80
2021/08/18 05:04:24;;;;;;;10.65;8.35;;;;;;;15.87;59.08;100143.72;128951;1094;22394;-78
2021/08/18 05:06:54;;;;;;;11.18;8.40;;;;;;;15.93;58.67;100138.38;128630;1095;22355;-79
2021/08/18 05:09:23;;;;;;;11.35;8.45;;;;;;;15.99;58.18;100145.55;128706;1095;22641;-76
2021/08/18 05:11:54;;;;;;;13.93;8.90;;;;;;;16.05;58.40;100140.40;128668;1095;22341;-78
2021/08/18 05:14:24;;;;;;;11.37;8.47;;;;;;;16.12;58.27;100155.34;128681;1095;22376;-77
2021/08/18 05:16:54;;;;;;;10.53;8.50;;;;;;;16.16;58.14;100139.74;128320;1095;22341;-79
2021/08/18 05:19:24;;;;;;;11.88;7.68;;;;;;;16.22;58.20;100145.05;128413;1095;22344;-77
2021/08/18 05:21:54;;;;;;;11.83;7.73;;;;;;;16.23;57.73;100144.05;128337;1095;22353;-77
2021/08/18 05:24:23;;;;;;;10.98;9.38;;;;;;;16.29;57.43;100147.70;128642;1095;23919;-76
2021/08/18 05:26:53;;;;;;;10.65;8.48;;;;;;;16.38;57.44;100150.97;128703;1095;22361;-77
2021/08/18 05:29:22;;;;;;;13.00;8.68;;;;;;;16.52;57.31;100143.73;128687;1095;22346;-78
2021/08/18 05:31:52;;;;;;;12.93;7.63;;;;;;;16.68;57.22;100151.25;128685;1093;22344;-76
2021/08/18 05:34:21;;;;;;;11.40;9.08;;;;;;;16.77;56.83;100155.34;128639;1095;22344;-75
2021/08/18 05:36:51;;;;;;;8.88;6.93;;;;;;;16.91;56.50;100153.42;128677;1095;22626;-76
2021/08/18 05:39:20;;;;;;;9.08;7.43;;;;;;;17.01;55.88;100145.77;128616;1095;22360;-74
2021/08/18 05:41:50;;;;;;;8.95;7.13;;;;;;;17.06;55.71;100140.62;128299;1095;22344;-75
2021/08/18 05:44:20;;;;;;;8.40;7.50;;;;;;;17.10;55.55;100139.14;128639;1095;22344;-75
2021/08/18 05:46:49;;;;;;;8.78;7.78;;;;;;;17.15;55.54;100136.63;128626;1095;22838;-75
2021/08/18 05:49:22;;;;;;;9.50;7.28;;;;;;;17.29;55.66;100144.55;128658;1095;25233;-75
2021/08/18 05:51:52;;;;;;;8.60;6.60;;;;;;;17.44;55.40;100144.23;128626;1094;22363;-75
2021/08/18 05:54:21;;;;;;;8.58;7.10;;;;;;;17.60;54.99;100143.70;128229;1098;22351;-75
2021/08/18 05:56:52;;;;;;;10.80;7.38;;;;;;;17.83;54.58;100148.45;128203;1098;22363;-75
2021/08/18 05:59:21;;;;;;;11.47;7.40;;;;;;;18.07;54.33;100154.79;128203;1098;22353;-75
2021/08/18 06:01:51;;;;;;;11.35;7.18;;;;;;;18.35;53.87;100154.27;128240;1098;22356;-75
2021/08/18 06:04:24;;;;;;;9.85;6.75;;;;;;;18.32;52.15;100152.84;128281;1098;22455;-75
2021/08/18 06:06:54;;;;;;;8.25;6.85;;;;;;;18.16;52.37;100157.97;128265;1098;22358;-74
2021/08/18 06:09:24;;;;;;;9.13;6.85;;;;;;;18.08;52.37;100159.90;128166;1098;22361;-82
2021/08/18 06:11:53;;;;;;;12.40;7.30;;;;;;;18.05;52.67;100160.34;128299;1095;22483;-80
2021/08/18 06:14:24;;;;;;;8.65;6.80;;;;;;;17.95;52.46;100161.89;128365;1094;22348;-82
2021/08/18 06:16:53;;;;;;;10.95;7.33;;;;;;;17.74;52.70;100163.91;128160;1098;23893;-79
2021/08/18 06:19:23;;;;;;;14.18;7.95;;;;;;;17.64;53.15;100167.07;128089;1098;24515;-79
2021/08/18 06:21:53;;;;;;;9.73;7.60;;;;;;;17.63;53.39;100164.63;128073;1098;22352;-80
2021/08/18 06:24:30;;;;;;;9.60;7.60;;;;;;;17.61;53.06;100166.69;128034;1098;22363;-79
2021/08/18 06:27:00;;;;;;;11.90;7.20;;;;;;;17.74;53.87;100165.77;128112;1098;22352;-81
2021/08/18 06:29:32;;;;;;;10.83;7.65;;;;;;;18.04;53.98;100165.92;128312;1098;22365;-81
2021/08/18 06:32:04;;;;;;;8.35;6.88;;;;;;;18.45;53.58;100175.14;128214;1098;23151;-80
2021/08/18 06:34:34;;;;;;;7.75;6.60;;;;;;;18.86;52.65;100169.11;128068;1098;22548;-79
2021/08/18 06:37:05;;;;;;;10.35;7.20;;;;;;;19.23;51.67;100175.17;128324;1095;22350;-80
2021/08/18 06:39:40;;;;;;;7.35;6.58;;;;;;;19.55;50.34;100179.41;128377;1095;22360;-80
2021/08/18 06:42:09;;;;;;;7.00;6.30;;;;;;;19.75;49.59;100180.74;128313;1095;24524;-80
2021/08/18 06:44:39;;;;;;;7.00;6.30;;;;;;;20.01;49.72;100175.16;128096;1095;24966;-80
2021/08/18 06:47:09;;;;;;;10.40;6.40;;;;;;;20.30;48.59;100170.70;128280;1095;24473;-79
2021/08/18 06:49:38;;;;;;;10.80;7.08;;;;;;;20.55;48.31;100181.98;128416;1095;22854;-80
2021/08/18 06:52:08;;;;;;;8.15;5.95;;;;;;;20.79;47.69;100181.90;128512;1095;22340;-79
2021/08/18 06:54:38;;;;;;;8.10;6.13;;;;;;;21.01;46.86;100177.50;128731;1095;22407;-80
2021/08/18 06:57:08;;;;;;;10.43;6.88;;;;;;;21.15;46.46;100183.38;128400;1093;22363;-80
2021/08/18 06:59:37;;;;;;;11.30;6.30;;;;;;;21.20;45.88;100182.67;128620;1095;24183;-79
2021/08/18 07:02:07;;;;;;;7.20;6.35;;;;;;;21.14;46.01;100189.82;128710;1095;22334;-81
2021/08/18 07:04:37;;;;;;;7.08;5.95;;;;;;;21.09;46.05;100189.71;128422;1095;22252;-80
2021/08/18 07:07:07;;;;;;;6.55;5.28;;;;;;;21.01;45.63;100184.74;128466;1095;24185;-80
2021/08/18 07:09:36;;;;;;;10.03;6.35;;;;;;;20.91;45.97;100185.37;128356;1095;22366;-78
2021/08/18 07:12:06;;;;;;;7.88;5.73;;;;;;;20.76;46.17;100187.75;128367;1095;24473;-78
2021/08/18 07:14:36;;;;;;;7.13;6.43;;;;;;;20.61;46.25;100178.34;128698;1095;22340;-77
2021/08/18 07:17:05;;;;;;;8.48;6.45;;;;;;;20.47;46.32;100184.20;128586;1095;24498;-79
2021/08/18 07:19:35;;;;;;;6.60;5.80;;;;;;;20.36;46.73;100185.83;128327;1095;22356;-79
2021/08/18 07:22:05;;;;;;;8.23;6.68;;;;;;;20.47;47.08;100186.89;128665;1095;22634;-79
2021/08/18 07:24:35;;;;;;;8.53;5.68;;;;;;;20.79;47.28;100190.80;128909;1095;24227;-79
2021/08/18 07:27:06;;;;;;;6.60;5.68;;;;;;;20.90;46.32;100184.55;129017;1095;24353;-79
2021/08/18 07:29:35;;;;;;;7.68;6.38;;;;;;;20.85;46.06;100186.31;128371;1095;22358;-79
2021/08/18 07:32:05;;;;;;;6.97;6.10;;;;;;;20.53;45.39;100188.66;128424;1094;22833;-79
2021/08/18 07:34:35;;;;;;;7.70;6.90;;;;;;;20.19;46.23;100191.95;128413;1095;22356;-80
2021/08/18 07:37:04;;;;;;;9.30;6.53;;;;;;;20.14;47.44;100191.82;128699;1095;23181;-78
2021/08/18 07:39:34;;;;;;;6.63;5.90;;;;;;;20.33;47.23;100186.33;128454;1095;22669;-78
2021/08/18 07:42:04;;;;;;;9.75;6.33;;;;;;;20.61;47.48;100182.91;128747;1095;22794;-79
2021/08/18 07:44:33;;;;;;;7.88;6.18;;;;;;;21.07;46.54;100184.59;128665;1093;22355;-78
2021/08/18 07:47:04;;;;;;;9.08;5.98;;;;;;;21.35;45.89;100177.58;128437;1095;22354;-78
2021/08/18 07:49:33;;;;;;;7.45;5.53;;;;;;;21.64;45.56;100185.58;128434;1095;24492;-79
2021/08/18 07:52:05;;;;;;;11.03;6.40;;;;;;;21.99;45.07;100187.98;128434;1095;22347;-79
2021/08/18 07:54:35;;;;;;;6.50;5.80;;;;;;;22.25;44.24;100178.42;128282;1098;22349;-79
2021/08/18 07:57:05;;;;;;;6.65;5.95;;;;;;;22.46;43.69;100174.11;128264;1098;22398;-78
2021/08/18 07:59:34;;;;;;;6.03;5.18;;;;;;;22.85;43.41;100195.57;128144;1098;22393;-78
2021/08/18 08:02:04;;;;;;;7.00;5.68;;;;;;;23.20;42.80;100185.20;128397;1098;22371;-79
2021/08/18 08:04:35;;;;;;;7.08;5.80;;;;;;;23.53;41.90;100187.91;128374;1098;22371;-78
2021/08/18 08:07:04;;;;;;;6.78;5.40;;;;;;;23.84;41.48;100178.99;128811;1098;22376;-79
2021/08/18 08:09:34;;;;;;;6.35;5.05;;;;;;;24.08;40.61;100194.79;128298;1098;22400;-78
2021/08/18 08:12:04;;;;;;;7.63;5.23;;;;;;;24.23;40.46;100192.19;128268;1095;22850;-79
2021/08/18 08:14:33;;;;;;;9.53;6.08;;;;;;;24.28;40.08;100189.50;128381;1095;24801;-79
2021/08/18 08:17:04;;;;;;;6.48;5.30;;;;;;;24.32;39.62;100195.19;128351;1095;22365;-79
2021/08/18 08:19:33;;;;;;;14.30;6.30;;;;;;;24.18;38.99;100189.45;128604;1095;23322;-78
2021/08/18 08:22:03;;;;;;;6.05;5.10;;;;;;;24.12;39.46;100187.79;128350;1095;22343;-78
2021/08/18 08:24:33;;;;;;;5.85;4.65;;;;;;;24.17;39.32;100193.23;128795;1095;22382;-80
2021/08/18 08:27:03;;;;;;;8.33;5.10;;;;;;;24.15;39.93;100184.56;128630;1095;24509;-78
2021/08/18 08:29:32;;;;;;;5.13;3.75;;;;;;;24.34;39.00;100177.66;128806;1095;22343;-78
2021/08/18 08:32:03;;;;;;;5.63;4.33;;;;;;;24.26;38.25;100169.23;129080;1095;22690;-78
2021/08/18 08:34:37;;;;;;;6.38;3.90;;;;;;;24.17;38.96;100183.24;128686;1095;22343;-80
2021/08/18 08:37:09;;;;;;;7.60;3.90;;;;;;;24.26;38.75;100180.87;129026;1095;22344;-78
2021/08/18 08:39:39;;;;;;;6.13;3.75;;;;;;;24.26;38.76;100180.87;128908;1095;22509;-80
2021/08/18 08:42:10;;;;;;;7.73;4.08;;;;;;;24.24;38.56;100182.20;128458;1095;22824;-78
2021/08/18 08:44:40;;;;;;;8.95;3.98;;;;;;;24.24;38.46;100184.90;128721;1095;24495;-75
2021/08/18 08:47:10;;;;;;;8.30;4.60;;;;;;;24.29;38.20;100187.61;128364;1095;22363;-75
2021/08/18 08:49:40;;;;;;;7.30;3.78;;;;;;;23.98;37.39;100176.65;128446;1095;22133;-76
2021/08/18 08:52:13;;;;;;;9.00;4.13;;;;;;;23.55;38.06;100188.45;128461;1095;24565;-76
2021/08/18 08:54:43;;;;;;;5.40;3.23;;;;;;;23.15;38.83;100190.52;128478;1095;22344;-76
2021/08/18 08:57:13;;;;;;;12.43;3.90;;;;;;;22.92;39.21;100193.48;128670;1094;22354;-76
2021/08/18 08:59:43;;;;;;;6.75;4.30;;;;;;;22.60;39.59;100190.72;128638;1095;22343;-75
2021/08/18 09:02:13;;;;;;;6.58;3.90;;;;;;;22.29;39.90;100184.93;128701;1093;22375;-75
2021/08/18 09:04:46;;;;;;;5.53;4.45;;;;;;;22.01;40.41;100193.94;128344;1095;22359;-74
2021/08/18 09:07:22;;;;;;;5.43;4.13;;;;;;;21.80;40.36;100187.45;128669;1093;22359;-75
2021/08/18 09:10:05;;;;;;;4.68;3.40;;;;;;;21.88;41.31;100180.84;128652;1095;22353;-75
2021/08/18 09:12:39;;;;;;;7.40;3.95;;;;;;;21.95;40.82;100176.91;128440;1095;24156;-75
2021/08/18 09:15:20;;;;;;;11.13;4.47;;;;;;;21.94;40.87;100183.36;128417;1095;22340;-75
2021/08/18 09:17:52;;;;;;;5.38;3.75;;;;;;;22.01;41.22;100172.42;128726;1094;22443;-76
2021/08/18 09:20:27;;;;;;;9.00;3.80;;;;;;;22.07;40.97;100172.25;128632;1095;25008;-75
2021/08/18 09:23:01;;;;;;;4.88;3.68;;;;;;;22.18;41.03;100177.80;128369;1094;22631;-75
2021/08/18 09:25:35;;;;;;;6.18;4.08;;;;;;;22.42;40.65;100172.98;128405;1095;22350;-75
2021/08/18 09:28:25;;;;;;;7.35;3.60;;;;;;;22.69;40.62;100168.48;128705;1095;22348;-75
2021/08/18 09:30:57;;;;;;;7.43;3.88;;;;;;;22.73;39.62;100174.98;128268;1098;22347;-75
2021/08/18 09:33:33;;;;;;;8.70;4.20;;;;;;;22.69;39.77;100173.88;128026;1096;22463;-75
2021/08/18 09:36:03;;;;;;;4.93;4.10;;;;;;;22.83;40.10;100185.06;128050;1098;22374;-74
2021/08/18 09:38:33;;;;;;;5.88;3.93;;;;;;;22.94;39.84;100178.73;128268;1098;22350;-75
2021/08/18 09:41:03;;;;;;;6.90;3.45;;;;;;;22.83;39.37;100185.06;128284;1098;22364;-75
2021/08/18 09:43:32;;;;;;;7.35;3.65;;;;;;;22.74;39.71;100173.11;128023;1098;22394;-76
2021/08/18 09:46:05;;;;;;;6.65;4.15;;;;;;;22.72;39.80;100186.00;128303;1098;24394;-76
2021/08/18 09:48:38;;;;;;;5.93;3.73;;;;;;;22.61;39.24;100176.19;128429;1098;22462;-75
2021/08/18 09:51:12;;;;;;;7.10;4.55;;;;;;;22.39;39.42;100178.87;128285;1098;22373;-75
2021/08/18 09:53:44;;;;;;;7.20;3.40;;;;;;;22.18;39.81;100173.22;128268;1098;22910;-77
2021/08/18 09:56:16;;;;;;;14.90;4.95;;;;;;;22.36;41.00;100168.59;128237;1098;22376;-76
2021/08/18 09:58:55;;;;;;;5.03;3.45;;;;;;;22.43;40.33;100175.45;128111;1098;22398;-76
2021/08/18 10:01:25;;;;;;;4.07;3.10;;;;;;;22.50;40.28;100167.98;128274;1098;22824;-76
2021/08/18 10:03:55;;;;;;;6.08;3.68;;;;;;;22.58;40.08;100173.99;128357;1098;22349;-76
2021/08/18 10:06:25;;;;;;;6.73;3.25;;;;;;;22.29;39.48;100166.94;128237;1098;22460;-77
2021/08/18 10:08:56;;;;;;;5.28;3.25;;;;;;;21.98;40.38;100167.53;128338;1095;24492;-76
2021/08/18 10:11:27;;;;;;;6.25;3.40;;;;;;;21.73;40.79;100163.42;128702;1093;22347;-75
2021/08/18 10:13:57;;;;;;;6.43;4.05;;;;;;;21.59;40.92;100162.95;128720;1095;24959;-74
2021/08/18 10:16:27;;;;;;;6.08;4.00;;;;;;;21.54;41.31;100156.67;128865;1095;24483;-76
2021/08/18 10:19:05;;;;;;;4.30;3.88;;;;;;;21.47;41.69;100162.20;128473;1095;22340;-75
2021/08/18 10:21:35;;;;;;;4.98;3.30;;;;;;;21.31;41.95;100162.98;128393;1095;22342;-75
2021/08/18 10:24:07;;;;;;;7.95;4.23;;;;;;;21.21;42.02;100157.43;128351;1095;22359;-75
2021/08/18 10:26:36;;;;;;;4.68;3.38;;;;;;;21.23;42.33;100171.45;128732;1095;22341;-74
2021/08/18 10:29:09;;;;;;;4.08;3.45;;;;;;;21.29;41.86;100165.08;128726;1095;22335;-75
2021/08/18 10:31:45;;;;;;;6.70;3.48;;;;;;;21.29;41.87;100167.77;128445;1095;23084;-74
2021/08/18 10:34:40;;;;;;;7.00;3.53;;;;;;;21.22;41.50;100169.80;128741;1095;22346;-75
2021/08/18 10:37:20;;;;;;;4.48;3.08;;;;;;;21.02;41.82;100173.75;128738;1094;22340;-76
2021/08/18 10:39:56;;;;;;;7.60;3.70;;;;;;;20.95;42.27;100167.71;128735;1095;22563;-76
2021/08/18 10:42:44;;;;;;;45.85;5.78;;;;;;;20.85;42.40;100176.39;128668;1093;22360;-77
2021/08/18 10:45:40;;;;;;;11.25;4.73;;;;;;;20.75;42.47;100172.70;128391;1095;22361;-75
2021/08/18 10:48:10;;;;;;;8.83;4.00;;;;;;;20.60;42.78;100181.28;128217;1098;23119;-74
2021/08/18 10:50:43;;;;;;;10.50;4.58;;;;;;;20.53;43.02;100175.23;128278;1098;22357;-75
2021/08/18 10:53:31;;;;;;;5.95;3.30;;;;;;;20.43;43.06;100184.67;128083;1098;22378;-73
2021/08/18 10:56:44;;;;;;;9.87;5.13;;;;;;;20.36;43.53;100172.42;128349;1098;22347;-74
2021/08/18 11:00:10;;;;;;;5.55;4.40;;;;;;;20.25;43.66;100175.95;128402;1098;24502;-74
2021/08/18 11:03:01;;;;;;;4.78;3.35;;;;;;;20.14;43.69;100172.23;127801;1102;22726;-75
2021/08/18 11:05:53;;;;;;;4.13;3.73;;;;;;;20.11;43.95;100168.16;127750;1104;22381;-74
2021/08/18 11:08:45;;;;;;;7.68;3.50;;;;;;;20.06;43.85;100168.06;127761;1101;22404;-74
2021/08/18 11:11:16;;;;;;;4.75;2.80;;;;;;;20.01;43.90;100170.61;127675;1102;24836;-75
2021/08/18 11:14:07;;;;;;;5.78;3.75;;;;;;;20.04;43.92;100167.46;127791;1104;22377;-74
2021/08/18 11:16:36;;;;;;;8.90;3.28;;;;;;;20.08;44.14;100165.94;127583;1102;22464;-76
2021/08/18 11:19:11;;;;;;;6.03;3.18;;;;;;;20.08;43.83;100165.94;127578;1104;22375;-76
2021/08/18 11:21:43;;;;;;;5.50;2.93;;;;;;;20.07;43.87;100158.95;127906;1100;22500;-75
2021/08/18 11:24:17;;;;;;;5.05;3.13;;;;;;;20.04;44.00;100162.10;127709;1101;22370;-75
2021/08/18 11:26:49;;;;;;;3.58;2.98;;;;;;;20.05;43.92;100152.19;128207;1098;22369;-75
2021/08/18 11:29:20;;;;;;;3.90;3.48;;;;;;;20.09;43.98;100161.39;128047;1098;24778;-74
2021/08/18 11:31:56;;;;;;;8.53;3.48;;;;;;;20.18;44.00;100154.62;128064;1098;22388;-77
2021/08/18 11:34:35;;;;;;;6.18;2.88;;;;;;;20.23;44.11;100157.42;127962;1098;22370;-76